createdAt,value
2018-09-18T00:01:24.494Z,100944.91
2018-09-18T00:03:54.951Z,100939.13
2018-09-18T00:06:25.466Z,100937.89
2018-09-18T00:08:56.051Z,100937.23
2018-09-18T00:11:25.612Z,100933.39
2018-09-18T00:13:55.133Z,100936.79
2018-09-18T00:16:25.311Z,100932.48
2018-09-18T00:18:54.775Z,100928.34
2018-09-18T00:21:24.385Z,100927.77
2018-09-18T00:23:53.836Z,100927.66
2018-09-18T00:26:23.356Z,100924.87
2018-09-18T00:28:53.348Z,100923.78
2018-09-18T00:31:23.833Z,100919.73
2018-09-18T00:33:53.313Z,100914.54
2018-09-18T00:36:23.081Z,100918.85
2018-09-18T00:38:52.502Z,100909.39
2018-09-18T00:41:22.299Z,100911.84
2018-09-18T00:43:51.604Z,100907.23
2018-09-18T00:46:21.548Z,100907.23
2018-09-18T00:48:51.259Z,100911.05
2018-09-18T00:51:20.597Z,100900.12
2018-09-18T00:53:50.016Z,100903.77
2018-09-18T00:56:19.256Z,100906.11
2018-09-18T00:58:48.663Z,100903.58
2018-09-18T01:01:19.041Z,100901.13
2018-09-18T01:03:49.453Z,100899.27
2018-09-18T01:06:20.176Z,100902.08
2018-09-18T01:08:52.286Z,100894.87
2018-09-18T01:11:21.852Z,100893.66
2018-09-18T01:13:52.139Z,100888.63
2018-09-18T01:16:22.355Z,100893.27
2018-09-18T01:18:51.701Z,100885.22
2018-09-18T01:21:21.718Z,100891.58
2018-09-18T01:23:51.675Z,100882.52
2018-09-18T01:26:21.202Z,100881.27
2018-09-18T01:28:50.601Z,100880.00
2018-09-18T01:31:21.486Z,100880.33
2018-09-18T01:33:52.504Z,100877.54
2018-09-18T01:36:22.299Z,100878.31
2018-09-18T01:38:52.059Z,100871.64
2018-09-18T01:41:22.523Z,100830.16
2018-09-18T01:43:52.271Z,100875.37
2018-09-18T01:46:22.043Z,100869.08
2018-09-18T01:48:52.303Z,100871.72
2018-09-18T01:51:22.581Z,100872.88
2018-09-18T01:53:52.138Z,100873.17
2018-09-18T01:56:23.095Z,100868.75
2018-09-18T01:58:52.901Z,100867.73
2018-09-18T02:01:23.497Z,100865.53
2018-09-18T02:03:54.501Z,100861.92
2018-09-18T02:06:24.240Z,100862.31
2018-09-18T02:08:54.088Z,100797.78
2018-09-18T02:11:23.710Z,100858.55
2018-09-18T02:13:53.402Z,100861.73
2018-09-18T02:16:23.218Z,100855.55
2018-09-18T02:18:53.952Z,100857.93
2018-09-18T02:21:23.743Z,100852.52
2018-09-18T02:23:53.482Z,100859.73
2018-09-18T02:26:23.575Z,100857.95
2018-09-18T02:28:53.531Z,100858.27
2018-09-18T02:31:24.033Z,100853.56
2018-09-18T02:33:53.828Z,100847.47
2018-09-18T02:36:23.556Z,100848.94
2018-09-18T02:38:53.558Z,100853.72
2018-09-18T02:41:23.886Z,100854.78
2018-09-18T02:43:53.414Z,100856.36
2018-09-18T02:46:23.223Z,100845.47
2018-09-18T02:48:53.667Z,100850.19
2018-09-18T02:51:23.562Z,100842.01
2018-09-18T02:53:53.349Z,100847.84
2018-09-18T02:56:22.882Z,100841.56
2018-09-18T02:58:52.359Z,100841.42
2018-09-18T03:01:22.386Z,100846.14
2018-09-18T03:03:51.887Z,100841.24
2018-09-18T03:06:21.297Z,100844.39
2018-09-18T03:08:50.672Z,100838.80
2018-09-18T03:11:20.265Z,100842.33
2018-09-18T03:13:50.333Z,100834.09
2018-09-18T03:16:20.007Z,100837.77
2018-09-18T03:18:49.524Z,100833.83
2018-09-18T03:21:21.541Z,100839.56
2018-09-18T03:23:51.228Z,100832.48
2018-09-18T03:26:21.079Z,100838.80
2018-09-18T03:28:50.474Z,100823.80
2018-09-18T03:31:20.102Z,100823.80
2018-09-18T03:33:50.171Z,100826.50
2018-09-18T03:36:19.791Z,100831.31
2018-09-18T03:38:49.261Z,100825.72
2018-09-18T03:41:18.747Z,100824.63
2018-09-18T03:43:48.447Z,100819.87
2018-09-18T03:46:18.598Z,100814.06
2018-09-18T03:48:48.090Z,100813.05
2018-09-18T03:51:17.589Z,100813.44
2018-09-18T03:53:47.325Z,100812.12
2018-09-18T03:56:16.615Z,100811.61
2018-09-18T03:58:45.964Z,100808.08
2018-09-18T04:01:15.529Z,100804.36
2018-09-18T04:03:45.301Z,100802.82
2018-09-18T04:06:15.751Z,100800.63
2018-09-18T04:08:45.450Z,100798.25
2018-09-18T04:11:14.894Z,100796.31
2018-09-18T04:13:44.213Z,100791.87
2018-09-18T04:16:13.972Z,100794.90
2018-09-18T04:18:45.625Z,100783.75
2018-09-18T04:21:15.381Z,100783.70
2018-09-18T04:23:44.936Z,100782.70
2018-09-18T04:26:15.086Z,100784.48
2018-09-18T04:31:21.497Z,100777.05
2018-09-18T04:33:51.343Z,100776.34
2018-09-18T04:36:20.867Z,100775.19
2018-09-18T04:38:50.500Z,100774.02
2018-09-18T04:41:19.940Z,100774.53
2018-09-18T04:43:50.852Z,100771.40
2018-09-18T04:46:23.047Z,100767.16
2018-09-18T04:48:52.647Z,100770.43
2018-09-18T04:51:22.691Z,100772.64
2018-09-18T04:53:52.298Z,100780.67
2018-09-18T04:56:22.368Z,100770.18
2018-09-18T04:58:52.531Z,100775.05
2018-09-18T05:01:22.227Z,100774.12
2018-09-18T05:03:51.848Z,100773.73
2018-09-18T05:06:21.744Z,100773.59
2018-09-18T05:08:53.026Z,100771.17
2018-09-18T05:11:22.633Z,100775.37
2018-09-18T05:13:52.074Z,100776.83
2018-09-18T05:16:21.961Z,100776.13
2018-09-18T05:18:53.686Z,100772.16
2018-09-18T05:21:23.502Z,100776.07
2018-09-18T05:23:52.822Z,100775.13
2018-09-18T05:26:22.651Z,100775.13
2018-09-18T05:28:52.173Z,100776.39
2018-09-18T05:31:21.813Z,100775.37
2018-09-18T05:33:52.188Z,100784.38
2018-09-18T05:36:21.673Z,100778.96
2018-09-18T05:38:52.060Z,100774.49
2018-09-18T05:41:21.742Z,100780.09
2018-09-18T05:43:51.966Z,100776.92
2018-09-18T05:48:55.854Z,100781.66
2018-09-18T05:51:25.746Z,100779.94
2018-09-18T05:53:57.072Z,100779.84
2018-09-18T05:56:26.787Z,100783.11
2018-09-18T05:58:57.117Z,100787.78
2018-09-18T06:01:28.428Z,100783.73
2018-09-18T06:03:59.002Z,100785.63
2018-09-18T06:06:32.462Z,100791.06
2018-09-18T06:09:05.922Z,100792.47
2018-09-18T06:11:38.094Z,100787.75
2018-09-18T06:14:10.646Z,100790.92
2018-09-18T06:16:40.786Z,100796.34
2018-09-18T06:19:11.371Z,100790.08
2018-09-18T06:21:42.057Z,100786.02
2018-09-18T06:24:22.408Z,100787.06
2018-09-18T06:26:52.419Z,100789.81
2018-09-18T06:29:22.992Z,100786.59
2018-09-18T06:31:54.369Z,100786.69
2018-09-18T06:34:25.972Z,100788.83
2018-09-18T06:36:58.622Z,100790.13
2018-09-18T06:39:29.402Z,100788.45
2018-09-18T06:41:59.638Z,100784.66
2018-09-18T06:44:29.810Z,100784.78
2018-09-18T06:47:07.378Z,100788.70
2018-09-18T06:49:36.943Z,100783.48
2018-09-18T06:52:06.646Z,100790.80
2018-09-18T06:54:36.338Z,100790.19
2018-09-18T06:57:08.501Z,100788.22
2018-09-18T06:59:39.285Z,100781.89
2018-09-18T07:02:12.080Z,100779.82
2018-09-18T07:04:42.025Z,100779.86
2018-09-18T07:07:11.585Z,100778.12
2018-09-18T07:09:41.642Z,100781.33
2018-09-18T07:12:13.922Z,100783.66
2018-09-18T07:14:48.495Z,100778.27
2018-09-18T07:17:19.188Z,100784.08
2018-09-18T07:19:50.219Z,100786.95
2018-09-18T07:22:21.173Z,100782.56
2018-09-18T07:24:50.924Z,100787.62
2018-09-18T07:27:20.369Z,100791.24
2018-09-18T07:30:30.594Z,100784.80
2018-09-18T07:33:00.420Z,100781.66
2018-09-18T07:35:39.809Z,100781.17
2018-09-18T07:38:13.633Z,100783.45
2018-09-18T07:40:44.625Z,100779.08
2018-09-18T07:43:21.263Z,100782.30
2018-09-18T07:45:54.281Z,100773.23
2018-09-18T07:48:26.395Z,100763.70
2018-09-18T07:50:56.684Z,100770.02
2018-09-18T07:56:06.395Z,100776.42
2018-09-18T07:58:45.042Z,100775.91
2018-09-18T08:01:14.917Z,100780.53
2018-09-18T08:03:46.490Z,100774.33
2018-09-18T08:06:19.105Z,100769.00
2018-09-18T08:08:50.713Z,100770.13
2018-09-18T08:11:24.087Z,100770.20
2018-09-18T08:13:55.556Z,100769.92
2018-09-18T08:16:34.093Z,100770.70
2018-09-18T08:19:06.663Z,100771.61
2018-09-18T08:21:37.441Z,100768.87
2018-09-18T08:24:07.776Z,100772.37
2018-09-18T08:26:37.542Z,100776.43
2018-09-18T08:29:07.985Z,100779.16
2018-09-18T08:31:39.480Z,100787.19
2018-09-18T08:34:09.921Z,100780.05
2018-09-18T08:36:41.069Z,100783.72
2018-09-18T08:39:11.262Z,100779.89
2018-09-18T08:41:42.266Z,100781.77
2018-09-18T08:44:19.603Z,100788.96
2018-09-18T08:46:57.984Z,100785.98
2018-09-18T08:49:28.866Z,100778.88
2018-09-18T08:51:59.373Z,100792.50
2018-09-18T08:54:30.114Z,100790.67
2018-09-18T08:57:00.002Z,100792.84
2018-09-18T08:59:30.103Z,100778.90
2018-09-18T09:02:02.650Z,100777.73
2018-09-18T09:04:32.725Z,100784.94
2018-09-18T09:07:02.932Z,100786.77
2018-09-18T09:09:38.428Z,100779.43
2018-09-18T09:12:18.555Z,100788.16
2018-09-18T09:14:48.639Z,100785.41
2018-09-18T09:17:20.366Z,100788.98
2018-09-18T09:19:50.908Z,100781.50
2018-09-18T09:22:22.852Z,100785.88
2018-09-18T09:24:54.654Z,100785.77
2018-09-18T09:27:25.003Z,100785.52
2018-09-18T09:29:54.555Z,100784.33
2018-09-18T09:32:26.088Z,100776.50
2018-09-18T09:34:57.509Z,100772.28
2018-09-18T09:37:39.632Z,100774.71
2018-09-18T09:40:09.399Z,100783.08
2018-09-18T09:42:39.907Z,100778.67
2018-09-18T09:45:20.837Z,100777.38
2018-09-18T09:47:57.468Z,100752.25
2018-09-18T09:50:36.339Z,100781.80
2018-09-18T09:53:07.492Z,100775.87
2018-09-18T09:55:40.594Z,100777.46
2018-09-18T09:58:15.422Z,100780.17
2018-09-18T10:00:51.329Z,100782.80
2018-09-18T10:03:23.904Z,100781.52
2018-09-18T10:05:54.379Z,100779.34
2018-09-18T10:08:24.838Z,100784.95
2018-09-18T10:11:01.632Z,100779.28
2018-09-18T10:13:40.673Z,100782.22
2018-09-18T10:16:12.209Z,100783.42
2018-09-18T10:18:43.308Z,100785.42
2018-09-18T10:21:13.947Z,100779.44
2018-09-18T10:24:03.524Z,100778.12
2018-09-18T10:26:34.604Z,100765.63
2018-09-18T10:29:08.212Z,100769.27
2018-09-18T10:31:46.184Z,100763.70
2018-09-18T10:34:16.576Z,100769.92
2018-09-18T10:36:47.540Z,100762.45
2018-09-18T10:39:23.388Z,100769.27
2018-09-18T10:42:06.020Z,100761.25
2018-09-18T10:44:45.067Z,100752.55
2018-09-18T10:47:18.736Z,100765.14
2018-09-18T10:49:48.809Z,100753.48
2018-09-18T10:52:27.266Z,100750.06
2018-09-18T10:55:00.473Z,100753.09
2018-09-18T10:57:35.541Z,100748.19
2018-09-18T11:02:46.910Z,100740.20
2018-09-18T11:05:18.884Z,100737.44
2018-09-18T11:07:54.714Z,100721.87
2018-09-18T11:10:25.209Z,100723.16
2018-09-18T11:12:57.364Z,100726.17
2018-09-18T11:15:30.189Z,100733.20
2018-09-18T11:18:00.571Z,100737.66
2018-09-18T11:20:32.611Z,100740.27
2018-09-18T11:23:05.582Z,100506.81
2018-09-18T11:25:46.407Z,100736.98
2018-09-18T11:28:17.587Z,100739.90
2018-09-18T11:30:50.349Z,100731.37
2018-09-18T11:33:26.235Z,100731.66
2018-09-18T11:35:59.687Z,100742.59
2018-09-18T11:38:30.346Z,100736.08
2018-09-18T11:41:06.295Z,100737.60
2018-09-18T11:43:37.313Z,100729.31
2018-09-18T11:46:13.355Z,100731.98
2018-09-18T11:48:50.490Z,100739.98
2018-09-18T11:51:21.651Z,100729.36
2018-09-18T11:53:51.298Z,100723.95
2018-09-18T11:56:21.210Z,100723.63
2018-09-18T11:58:50.652Z,100723.12
2018-09-18T12:01:25.260Z,100717.44
2018-09-18T12:03:58.835Z,100719.59
2018-09-18T12:06:32.913Z,100715.33
2018-09-18T12:09:07.997Z,100716.63
2018-09-18T12:11:38.449Z,100720.45
2018-09-18T12:14:09.119Z,100719.73
2018-09-18T12:16:38.750Z,100725.74
2018-09-18T12:19:14.791Z,100717.16
2018-09-18T12:21:51.975Z,100715.41
2018-09-18T12:24:24.164Z,100713.16
2018-09-18T12:26:55.317Z,100710.00
2018-09-18T12:29:31.381Z,100712.20
2018-09-18T12:32:04.379Z,100710.06
2018-09-18T12:34:37.827Z,100713.08
2018-09-18T12:37:07.631Z,100707.67
2018-09-18T12:39:38.576Z,100709.27
2018-09-18T12:42:09.835Z,100705.12
2018-09-18T12:44:46.730Z,100703.14
2018-09-18T12:47:20.274Z,100700.95
2018-09-18T12:49:51.138Z,100711.70
2018-09-18T12:52:24.291Z,100704.42
2018-09-18T12:54:56.588Z,100700.41
2018-09-18T12:57:26.305Z,100694.72
2018-09-18T13:00:10.923Z,100682.65
2018-09-18T13:02:43.193Z,100696.27
2018-09-18T13:05:20.004Z,100695.14
2018-09-18T13:07:49.814Z,100694.99
2018-09-18T13:10:21.531Z,100696.02
2018-09-18T13:12:51.575Z,100687.25
2018-09-18T13:15:22.270Z,100693.02
2018-09-18T13:17:53.301Z,100690.64
2018-09-18T13:20:25.520Z,100691.69
2018-09-18T13:22:55.630Z,100675.76
2018-09-18T13:25:25.721Z,100685.39
2018-09-18T13:28:06.183Z,100690.81
2018-09-18T13:30:44.472Z,100696.49
2018-09-18T13:33:14.239Z,100699.50
2018-09-18T13:35:45.390Z,100698.33
2018-09-18T13:38:14.768Z,100686.48
2018-09-18T13:41:05.937Z,100693.78
2018-09-18T13:43:35.835Z,100692.81
2018-09-18T13:46:09.914Z,100690.06
2018-09-18T13:48:40.917Z,100691.94
2018-09-18T13:51:12.082Z,100698.86
2018-09-18T13:53:45.180Z,100693.69
2018-09-18T13:56:16.514Z,100699.31
2018-09-18T13:58:45.944Z,100697.31
2018-09-18T14:01:30.612Z,100691.81
2018-09-18T14:06:39.510Z,100686.38
2018-09-18T14:09:09.750Z,100695.05
2018-09-18T14:11:40.216Z,100685.78
2018-09-18T14:14:12.760Z,100689.10
2018-09-18T14:16:46.297Z,100638.38
2018-09-18T14:19:17.247Z,100686.93
2018-09-18T14:21:47.344Z,100695.03
2018-09-18T14:24:25.196Z,100698.41
2018-09-18T14:26:57.307Z,100697.73
2018-09-18T14:29:28.288Z,100703.31
2018-09-18T14:32:02.463Z,100707.23
2018-09-18T14:34:33.062Z,100701.56
2018-09-18T14:37:03.395Z,100701.48
2018-09-18T14:39:34.861Z,100704.27
2018-09-18T14:42:05.995Z,100711.41
2018-09-18T14:44:36.001Z,100708.75
2018-09-18T14:47:06.623Z,100727.23
2018-09-18T14:49:40.668Z,100734.53
2018-09-18T14:52:12.657Z,100737.73
2018-09-18T14:54:44.508Z,100735.24
2018-09-18T14:57:15.115Z,100729.56
2018-09-18T14:59:44.740Z,100729.75
2018-09-18T15:02:15.471Z,100729.98
2018-09-18T15:04:49.339Z,100729.22
2018-09-18T15:07:19.700Z,100728.47
2018-09-18T15:09:49.351Z,100724.34
2018-09-18T15:12:29.366Z,100726.81
2018-09-18T15:14:59.293Z,100732.37
2018-09-18T15:17:32.958Z,100721.52
2018-09-18T15:20:07.923Z,100737.55
2018-09-18T15:22:44.872Z,100727.95
2018-09-18T15:25:16.705Z,100734.93
2018-09-18T15:27:46.818Z,100737.41
2018-09-18T15:30:29.713Z,100738.49
2018-09-18T15:33:01.431Z,100739.16
2018-09-18T15:35:34.634Z,100739.98
2018-09-18T15:38:07.989Z,100747.14
2018-09-18T15:40:39.615Z,100744.96
2018-09-18T15:43:09.274Z,100745.77
2018-09-18T15:45:39.250Z,100749.86
2018-09-18T15:51:12.130Z,100746.33
2018-09-18T15:53:44.867Z,100752.13
2018-09-18T15:56:21.523Z,100757.06
2018-09-18T15:58:57.431Z,100750.19
2018-09-18T16:01:35.641Z,100758.75
2018-09-18T16:04:11.660Z,100753.55
2018-09-18T16:06:44.288Z,100758.52
2018-09-18T16:09:17.025Z,100759.37
2018-09-18T16:11:49.443Z,100757.69
2018-09-18T16:14:20.402Z,100759.36
2018-09-18T16:16:52.191Z,100749.97
2018-09-18T16:19:24.591Z,100751.63
2018-09-18T16:24:19.569Z,100756.53
2018-09-18T16:26:50.296Z,100750.16
2018-09-18T16:29:21.140Z,100758.44
2018-09-18T16:31:52.234Z,100757.34
2018-09-18T16:34:28.709Z,100757.05
2018-09-18T16:36:59.977Z,100759.80
2018-09-18T16:39:31.619Z,100762.80
2018-09-18T16:42:02.288Z,100762.50
2018-09-18T16:44:32.982Z,100764.89
2018-09-18T16:47:06.407Z,100761.59
2018-09-18T16:49:38.662Z,100770.08
2018-09-18T16:52:11.268Z,100764.84
2018-09-18T16:54:44.163Z,100763.98
2018-09-18T16:57:15.713Z,100766.14
2018-09-18T16:59:46.226Z,100767.50
2018-09-18T17:02:19.304Z,100771.88
2018-09-18T17:04:54.328Z,100782.33
2018-09-18T17:07:29.467Z,100792.75
2018-09-18T17:10:03.943Z,100790.52
2018-09-18T17:12:37.666Z,100800.84
2018-09-18T17:15:16.795Z,100800.22
2018-09-18T17:17:51.757Z,100802.39
2018-09-18T17:20:33.969Z,100814.17
2018-09-18T17:23:05.422Z,100815.50
2018-09-18T17:25:40.037Z,100813.81
2018-09-18T17:28:15.171Z,100819.34
2018-09-18T17:30:49.673Z,100833.81
2018-09-18T17:33:20.154Z,100841.36
2018-09-18T17:36:02.773Z,100839.09
2018-09-18T17:38:33.485Z,100850.22
2018-09-18T17:41:04.221Z,100853.75
2018-09-18T17:43:36.601Z,100856.69
2018-09-18T17:46:26.649Z,100860.99
2018-09-18T17:49:10.196Z,100874.29
2018-09-18T17:52:06.137Z,100878.61
2018-09-18T17:57:24.759Z,100892.19
2018-09-18T17:59:57.459Z,100901.23
2018-09-18T18:02:30.255Z,100899.58
2018-09-18T18:05:00.522Z,100902.70
2018-09-18T18:07:31.323Z,100907.22
2018-09-18T18:10:01.979Z,100913.65
2018-09-18T18:12:34.656Z,100920.29
2018-09-18T18:15:08.522Z,100923.41
2018-09-18T18:17:42.787Z,100932.13
2018-09-18T18:20:16.779Z,100935.33
2018-09-18T18:22:46.509Z,100943.48
2018-09-18T18:27:53.935Z,100957.36
2018-09-18T18:30:26.473Z,100962.00
2018-09-18T18:32:57.461Z,100965.04
2018-09-18T18:35:28.842Z,100969.30
2018-09-18T18:38:02.623Z,100969.08
2018-09-18T18:40:32.833Z,100732.61
2018-09-18T18:43:07.935Z,100986.63
2018-09-18T18:45:41.590Z,100990.83
2018-09-18T18:48:13.071Z,101004.08
2018-09-18T18:50:45.908Z,100998.13
2018-09-18T18:53:17.073Z,101003.16
2018-09-18T18:55:49.025Z,101010.32
2018-09-18T18:58:32.627Z,101011.47
2018-09-18T19:01:02.292Z,101014.81
2018-09-18T19:06:09.644Z,101020.82
2018-09-18T19:08:42.984Z,101023.56
2018-09-18T19:11:14.575Z,101026.86
2018-09-18T19:13:51.728Z,101024.58
2018-09-18T19:16:24.413Z,101032.12
2018-09-18T19:19:00.787Z,101027.08
2018-09-18T19:21:35.327Z,101029.05
2018-09-18T19:24:07.522Z,101027.91
2018-09-18T19:26:38.388Z,101025.55
2018-09-18T19:29:17.219Z,101032.61
2018-09-18T19:31:56.963Z,101032.26
2018-09-18T19:34:32.522Z,101035.75
2018-09-18T19:37:03.488Z,101039.08
2018-09-18T19:39:37.137Z,101045.61
2018-09-18T19:42:09.580Z,101047.02
2018-09-18T19:44:46.000Z,101049.76
2018-09-18T19:47:17.599Z,101051.20
2018-09-18T19:49:52.020Z,101050.59
2018-09-18T19:52:24.523Z,101055.48
2018-09-18T19:54:55.317Z,101062.23
2018-09-18T19:57:39.588Z,101059.23
2018-09-18T20:00:17.798Z,101055.54
2018-09-18T20:02:48.765Z,101016.50
2018-09-18T20:08:23.266Z,101067.08
2018-09-18T20:10:55.783Z,101072.27
2018-09-18T20:13:27.839Z,101070.63
2018-09-18T20:16:02.392Z,101075.25
2018-09-18T20:18:38.136Z,101081.24
2018-09-18T20:21:08.160Z,101078.65
2018-09-18T20:23:38.560Z,101082.16
2018-09-18T20:26:08.852Z,101081.91
2018-09-18T20:28:45.410Z,101088.37
2018-09-18T20:31:47.442Z,101092.30
2018-09-18T20:34:19.388Z,101089.06
2018-09-18T20:36:53.111Z,101084.35
2018-09-18T20:39:22.982Z,101087.02
2018-09-18T20:42:01.814Z,101079.75
2018-09-18T20:44:43.233Z,101086.05
2018-09-18T20:47:17.954Z,101084.22
2018-09-18T20:49:50.992Z,101077.78
2018-09-18T20:52:22.109Z,101087.34
2018-09-18T20:54:51.431Z,101087.70
2018-09-18T20:57:20.725Z,101096.72
2018-09-18T20:59:53.370Z,101095.30
2018-09-18T21:02:33.757Z,101096.05
2018-09-18T21:05:05.021Z,101093.48
2018-09-18T21:07:37.234Z,101094.23
2018-09-18T21:10:06.919Z,101096.80
2018-09-18T21:12:36.948Z,101099.00
2018-09-18T21:15:14.584Z,101100.59
2018-09-18T21:17:45.664Z,101103.56
2018-09-18T21:20:17.187Z,101099.16
2018-09-18T21:22:50.244Z,101105.45
2018-09-18T21:25:25.826Z,101106.36
2018-09-18T21:27:56.394Z,101105.73
2018-09-18T21:30:27.228Z,101112.67
2018-09-18T21:32:56.604Z,101117.60
2018-09-18T21:35:25.966Z,101114.19
2018-09-18T21:37:56.286Z,101010.34
2018-09-18T21:40:27.622Z,101115.77
2018-09-18T21:42:57.728Z,101115.65
2018-09-18T21:45:28.801Z,101116.16
2018-09-18T21:48:03.033Z,101120.45
2018-09-18T21:50:37.284Z,101123.55
2018-09-18T21:53:09.133Z,101123.94
2018-09-18T21:55:39.785Z,101123.25
2018-09-18T21:58:14.485Z,101122.66
2018-09-18T22:00:45.657Z,101130.89
2018-09-18T22:03:15.798Z,101140.95
2018-09-18T22:05:47.918Z,101144.13
2018-09-18T22:08:20.885Z,101147.22
2018-09-18T22:10:51.769Z,101150.70
2018-09-18T22:13:21.243Z,101146.55
2018-09-18T22:15:52.120Z,101155.86
2018-09-18T22:18:23.697Z,101151.21
2018-09-18T22:20:58.821Z,101161.16
2018-09-18T22:23:28.990Z,101161.40
2018-09-18T22:28:29.605Z,101171.11
2018-09-18T22:30:59.355Z,101176.25
2018-09-18T22:33:31.388Z,101134.58
2018-09-18T22:36:01.613Z,101179.61
2018-09-18T22:38:31.664Z,101174.92
2018-09-18T22:41:04.859Z,101183.09
2018-09-18T22:43:34.877Z,101172.53
2018-09-18T22:46:05.708Z,101173.59
2018-09-18T22:48:35.458Z,101170.59
2018-09-18T22:51:05.043Z,101174.92
2018-09-18T22:53:34.716Z,101173.05
2018-09-18T22:56:05.054Z,101190.20
2018-09-18T22:58:35.512Z,101180.05
2018-09-18T23:01:07.027Z,101184.88
2018-09-18T23:03:36.888Z,101191.36
2018-09-18T23:06:06.590Z,101189.59
2018-09-18T23:08:37.388Z,101194.83
2018-09-18T23:11:07.605Z,101197.62
2018-09-18T23:13:46.525Z,101198.78
2018-09-18T23:16:18.035Z,101200.23
2018-09-18T23:18:48.967Z,101200.78
2018-09-18T23:21:19.654Z,101196.80
2018-09-18T23:23:50.928Z,101161.95
2018-09-18T23:26:22.141Z,101205.22
2018-09-18T23:28:51.737Z,101205.13
2018-09-18T23:31:22.296Z,101197.38
2018-09-18T23:33:52.408Z,101204.18
2018-09-18T23:36:23.251Z,101201.77
2018-09-18T23:38:53.248Z,101199.55
2018-09-18T23:41:24.922Z,101197.27
2018-09-18T23:43:56.261Z,101197.57
2018-09-18T23:46:27.641Z,101193.62
2018-09-18T23:48:58.234Z,101194.94
2018-09-18T23:51:29.362Z,101195.80
2018-09-18T23:53:59.284Z,101199.45
2018-09-18T23:56:29.298Z,101201.11
2018-09-18T23:58:59.460Z,101199.33
